sensor_id;sensor_type;location;lat;lon;timestamp;P1;durP1;ratioP1;P2;durP2;ratioP2
11034;SDS011;5571;48.110;-1.706;2023-04-21T00:01:13;8.17;;;4.10;;
11034;SDS011;5571;48.110;-1.706;2023-04-21T00:03:38;12.07;;;4.30;;
11034;SDS011;5571;48.110;-1.706;2023-04-21T00:06:06;9.03;;;4.30;;
11034;SDS011;5571;48.110;-1.706;2023-04-21T00:08:33;7.50;;;3.90;;
11034;SDS011;5571;48.110;-1.706;2023-04-21T00:11:04;8.10;;;4.00;;
11034;SDS011;5571;48.110;-1.706;2023-04-21T00:13:33;12.77;;;4.63;;
11034;SDS011;5571;48.110;-1.706;2023-04-21T00:16:00;6.90;;;4.50;;
11034;SDS011;5571;48.110;-1.706;2023-04-21T00:18:26;10.87;;;4.80;;
11034;SDS011;5571;48.110;-1.706;2023-04-21T00:20:52;9.97;;;4.60;;
11034;SDS011;5571;48.110;-1.706;2023-04-21T00:23:17;9.40;;;4.47;;
11034;SDS011;5571;48.110;-1.706;2023-04-21T00:25:43;9.70;;;4.80;;
11034;SDS011;5571;48.110;-1.706;2023-04-21T00:28:08;7.13;;;4.30;;
11034;SDS011;5571;48.110;-1.706;2023-04-21T00:30:34;8.57;;;4.43;;
11034;SDS011;5571;48.110;-1.706;2023-04-21T00:33:00;8.80;;;4.80;;
11034;SDS011;5571;48.110;-1.706;2023-04-21T00:35:25;6.70;;;4.93;;
11034;SDS011;5571;48.110;-1.706;2023-04-21T00:37:51;8.27;;;4.90;;
11034;SDS011;5571;48.110;-1.706;2023-04-21T00:40:17;9.80;;;5.10;;
11034;SDS011;5571;48.110;-1.706;2023-04-21T00:42:43;10.33;;;5.20;;
11034;SDS011;5571;48.110;-1.706;2023-04-21T00:45:09;8.33;;;5.57;;
11034;SDS011;5571;48.110;-1.706;2023-04-21T00:47:35;6.40;;;4.33;;
11034;SDS011;5571;48.110;-1.706;2023-04-21T00:50:01;9.20;;;4.80;;
11034;SDS011;5571;48.110;-1.706;2023-04-21T00:52:28;8.03;;;5.23;;
11034;SDS011;5571;48.110;-1.706;2023-04-21T00:54:54;10.40;;;5.57;;
11034;SDS011;5571;48.110;-1.706;2023-04-21T00:57:21;6.77;;;5.60;;
11034;SDS011;5571;48.110;-1.706;2023-04-21T00:59:47;8.50;;;5.40;;
11034;SDS011;5571;48.110;-1.706;2023-04-21T01:02:14;10.03;;;5.70;;
11034;SDS011;5571;48.110;-1.706;2023-04-21T01:04:40;8.67;;;6.07;;
11034;SDS011;5571;48.110;-1.706;2023-04-21T01:07:07;10.03;;;6.33;;
11034;SDS011;5571;48.110;-1.706;2023-04-21T01:09:34;10.03;;;6.53;;
11034;SDS011;5571;48.110;-1.706;2023-04-21T01:12:00;8.70;;;5.67;;
11034;SDS011;5571;48.110;-1.706;2023-04-21T01:14:29;11.03;;;6.10;;
11034;SDS011;5571;48.110;-1.706;2023-04-21T01:16:55;11.43;;;6.40;;
11034;SDS011;5571;48.110;-1.706;2023-04-21T01:19:21;8.60;;;6.03;;
11034;SDS011;5571;48.110;-1.706;2023-04-21T01:21:48;10.33;;;5.63;;
11034;SDS011;5571;48.110;-1.706;2023-04-21T01:24:17;9.83;;;6.90;;
11034;SDS011;5571;48.110;-1.706;2023-04-21T01:26:43;13.37;;;6.23;;
11034;SDS011;5571;48.110;-1.706;2023-04-21T01:29:13;12.87;;;6.47;;
11034;SDS011;5571;48.110;-1.706;2023-04-21T01:31:39;13.37;;;6.40;;
11034;SDS011;5571;48.110;-1.706;2023-04-21T01:34:06;10.57;;;6.97;;
11034;SDS011;5571;48.110;-1.706;2023-04-21T01:36:31;9.80;;;6.50;;
11034;SDS011;5571;48.110;-1.706;2023-04-21T01:38:57;8.63;;;6.33;;
11034;SDS011;5571;48.110;-1.706;2023-04-21T01:41:23;15.87;;;7.00;;
11034;SDS011;5571;48.110;-1.706;2023-04-21T01:43:48;8.90;;;6.30;;
11034;SDS011;5571;48.110;-1.706;2023-04-21T01:46:14;10.93;;;6.37;;
11034;SDS011;5571;48.110;-1.706;2023-04-21T01:48:43;12.10;;;7.10;;
11034;SDS011;5571;48.110;-1.706;2023-04-21T01:51:08;12.07;;;6.37;;
11034;SDS011;5571;48.110;-1.706;2023-04-21T01:53:35;10.87;;;6.77;;
11034;SDS011;5571;48.110;-1.706;2023-04-21T01:56:00;10.07;;;6.40;;
11034;SDS011;5571;48.110;-1.706;2023-04-21T01:58:26;11.77;;;6.50;;
11034;SDS011;5571;48.110;-1.706;2023-04-21T02:00:51;12.47;;;6.63;;
11034;SDS011;5571;48.110;-1.706;2023-04-21T02:03:17;11.87;;;7.00;;
11034;SDS011;5571;48.110;-1.706;2023-04-21T02:05:43;14.20;;;6.93;;
11034;SDS011;5571;48.110;-1.706;2023-04-21T02:08:08;11.43;;;6.83;;
11034;SDS011;5571;48.110;-1.706;2023-04-21T02:10:34;12.80;;;7.17;;
11034;SDS011;5571;48.110;-1.706;2023-04-21T02:12:59;14.27;;;7.23;;
11034;SDS011;5571;48.110;-1.706;2023-04-21T02:15:25;11.37;;;7.03;;
11034;SDS011;5571;48.110;-1.706;2023-04-21T02:17:51;12.53;;;7.40;;
11034;SDS011;5571;48.110;-1.706;2023-04-21T02:20:16;11.77;;;7.23;;
11034;SDS011;5571;48.110;-1.706;2023-04-21T02:22:42;9.37;;;6.83;;
11034;SDS011;5571;48.110;-1.706;2023-04-21T02:25:08;10.33;;;6.90;;
11034;SDS011;5571;48.110;-1.706;2023-04-21T02:27:33;13.37;;;7.70;;
11034;SDS011;5571;48.110;-1.706;2023-04-21T02:29:59;12.10;;;7.20;;
11034;SDS011;5571;48.110;-1.706;2023-04-21T02:32:25;10.17;;;7.50;;
11034;SDS011;5571;48.110;-1.706;2023-04-21T02:34:50;10.13;;;7.37;;
11034;SDS011;5571;48.110;-1.706;2023-04-21T02:37:16;11.50;;;6.90;;
11034;SDS011;5571;48.110;-1.706;2023-04-21T02:39:41;13.60;;;7.33;;
11034;SDS011;5571;48.110;-1.706;2023-04-21T02:42:07;11.80;;;7.63;;
11034;SDS011;5571;48.110;-1.706;2023-04-21T02:44:35;11.20;;;8.07;;
11034;SDS011;5571;48.110;-1.706;2023-04-21T02:47:02;14.87;;;7.50;;
11034;SDS011;5571;48.110;-1.706;2023-04-21T02:49:27;10.47;;;7.80;;
11034;SDS011;5571;48.110;-1.706;2023-04-21T02:51:53;12.07;;;7.43;;
11034;SDS011;5571;48.110;-1.706;2023-04-21T02:54:19;18.87;;;8.00;;
11034;SDS011;5571;48.110;-1.706;2023-04-21T02:56:44;12.00;;;8.07;;
11034;SDS011;5571;48.110;-1.706;2023-04-21T02:59:10;15.47;;;7.83;;
11034;SDS011;5571;48.110;-1.706;2023-04-21T03:01:40;11.20;;;8.20;;
11034;SDS011;5571;48.110;-1.706;2023-04-21T03:04:05;14.17;;;8.50;;
11034;SDS011;5571;48.110;-1.706;2023-04-21T03:06:31;12.27;;;7.90;;
11034;SDS011;5571;48.110;-1.706;2023-04-21T03:08:57;14.40;;;8.27;;
11034;SDS011;5571;48.110;-1.706;2023-04-21T03:11:23;15.37;;;8.50;;
11034;SDS011;5571;48.110;-1.706;2023-04-21T03:13:49;11.77;;;8.00;;
11034;SDS011;5571;48.110;-1.706;2023-04-21T03:16:14;9.83;;;8.43;;
11034;SDS011;5571;48.110;-1.706;2023-04-21T03:18:40;15.27;;;8.90;;
11034;SDS011;5571;48.110;-1.706;2023-04-21T03:21:05;14.73;;;9.07;;
11034;SDS011;5571;48.110;-1.706;2023-04-21T03:23:31;15.87;;;9.13;;
11034;SDS011;5571;48.110;-1.706;2023-04-21T03:25:56;11.90;;;8.17;;
11034;SDS011;5571;48.110;-1.706;2023-04-21T03:28:22;11.87;;;7.67;;
11034;SDS011;5571;48.110;-1.706;2023-04-21T03:30:47;11.63;;;8.83;;
11034;SDS011;5571;48.110;-1.706;2023-04-21T03:33:13;14.03;;;8.70;;
11034;SDS011;5571;48.110;-1.706;2023-04-21T03:35:39;15.70;;;8.83;;
11034;SDS011;5571;48.110;-1.706;2023-04-21T03:38:04;13.80;;;9.27;;
11034;SDS011;5571;48.110;-1.706;2023-04-21T03:40:30;14.33;;;9.10;;
11034;SDS011;5571;48.110;-1.706;2023-04-21T03:42:55;12.53;;;8.90;;
11034;SDS011;5571;48.110;-1.706;2023-04-21T03:45:21;14.50;;;9.47;;
11034;SDS011;5571;48.110;-1.706;2023-04-21T03:47:48;11.53;;;8.37;;
11034;SDS011;5571;48.110;-1.706;2023-04-21T03:50:17;12.03;;;9.73;;
11034;SDS011;5571;48.110;-1.706;2023-04-21T03:52:42;12.00;;;9.23;;
11034;SDS011;5571;48.110;-1.706;2023-04-21T03:55:08;20.47;;;10.10;;
11034;SDS011;5571;48.110;-1.706;2023-04-21T03:57:36;12.90;;;10.13;;
11034;SDS011;5571;48.110;-1.706;2023-04-21T04:00:03;13.03;;;9.60;;
11034;SDS011;5571;48.110;-1.706;2023-04-21T04:02:29;14.47;;;9.67;;
11034;SDS011;5571;48.110;-1.706;2023-04-21T04:04:55;11.80;;;9.93;;
11034;SDS011;5571;48.110;-1.706;2023-04-21T04:07:20;12.47;;;9.70;;
11034;SDS011;5571;48.110;-1.706;2023-04-21T04:09:46;17.70;;;10.00;;
11034;SDS011;5571;48.110;-1.706;2023-04-21T04:12:12;11.53;;;9.20;;
11034;SDS011;5571;48.110;-1.706;2023-04-21T04:14:37;18.70;;;10.07;;
11034;SDS011;5571;48.110;-1.706;2023-04-21T04:17:03;13.63;;;9.47;;
11034;SDS011;5571;48.110;-1.706;2023-04-21T04:19:29;13.23;;;10.53;;
11034;SDS011;5571;48.110;-1.706;2023-04-21T04:21:57;14.60;;;10.17;;
11034;SDS011;5571;48.110;-1.706;2023-04-21T04:24:23;15.53;;;10.17;;
11034;SDS011;5571;48.110;-1.706;2023-04-21T04:26:50;16.30;;;10.73;;
11034;SDS011;5571;48.110;-1.706;2023-04-21T04:29:17;11.63;;;10.10;;
11034;SDS011;5571;48.110;-1.706;2023-04-21T04:31:43;13.10;;;10.70;;
11034;SDS011;5571;48.110;-1.706;2023-04-21T04:34:10;14.20;;;11.10;;
11034;SDS011;5571;48.110;-1.706;2023-04-21T04:36:36;12.70;;;10.23;;
11034;SDS011;5571;48.110;-1.706;2023-04-21T04:39:02;16.40;;;11.97;;
11034;SDS011;5571;48.110;-1.706;2023-04-21T04:41:30;21.70;;;14.60;;
11034;SDS011;5571;48.110;-1.706;2023-04-21T04:43:57;19.83;;;12.90;;
11034;SDS011;5571;48.110;-1.706;2023-04-21T04:46:23;22.00;;;15.00;;
11034;SDS011;5571;48.110;-1.706;2023-04-21T04:48:52;17.57;;;13.27;;
11034;SDS011;5571;48.110;-1.706;2023-04-21T04:51:17;23.73;;;15.40;;
11034;SDS011;5571;48.110;-1.706;2023-04-21T04:53:43;23.80;;;16.07;;
11034;SDS011;5571;48.110;-1.706;2023-04-21T04:56:08;16.20;;;11.93;;
11034;SDS011;5571;48.110;-1.706;2023-04-21T04:58:34;13.80;;;10.90;;
11034;SDS011;5571;48.110;-1.706;2023-04-21T05:01:09;14.87;;;11.57;;
11034;SDS011;5571;48.110;-1.706;2023-04-21T05:03:36;17.63;;;12.30;;
11034;SDS011;5571;48.110;-1.706;2023-04-21T05:06:01;14.40;;;11.47;;
11034;SDS011;5571;48.110;-1.706;2023-04-21T05:08:27;15.53;;;11.37;;
11034;SDS011;5571;48.110;-1.706;2023-04-21T05:10:53;15.30;;;11.50;;
11034;SDS011;5571;48.110;-1.706;2023-04-21T05:13:18;14.93;;;12.10;;
11034;SDS011;5571;48.110;-1.706;2023-04-21T05:15:44;13.13;;;11.73;;
11034;SDS011;5571;48.110;-1.706;2023-04-21T05:18:09;18.73;;;12.47;;
11034;SDS011;5571;48.110;-1.706;2023-04-21T05:20:35;15.43;;;11.90;;
11034;SDS011;5571;48.110;-1.706;2023-04-21T05:23:00;19.57;;;11.70;;
11034;SDS011;5571;48.110;-1.706;2023-04-21T05:25:26;21.27;;;11.97;;
11034;SDS011;5571;48.110;-1.706;2023-04-21T05:27:52;18.10;;;12.90;;
11034;SDS011;5571;48.110;-1.706;2023-04-21T05:30:17;17.13;;;11.67;;
11034;SDS011;5571;48.110;-1.706;2023-04-21T05:32:43;17.27;;;12.50;;
11034;SDS011;5571;48.110;-1.706;2023-04-21T05:35:09;15.27;;;11.80;;
11034;SDS011;5571;48.110;-1.706;2023-04-21T05:37:35;15.83;;;12.03;;
11034;SDS011;5571;48.110;-1.706;2023-04-21T05:40:00;18.10;;;12.50;;
11034;SDS011;5571;48.110;-1.706;2023-04-21T05:42:26;15.23;;;12.03;;
11034;SDS011;5571;48.110;-1.706;2023-04-21T05:44:51;18.10;;;12.37;;
11034;SDS011;5571;48.110;-1.706;2023-04-21T05:47:18;16.97;;;12.30;;
11034;SDS011;5571;48.110;-1.706;2023-04-21T05:49:43;15.10;;;12.20;;
11034;SDS011;5571;48.110;-1.706;2023-04-21T05:52:13;17.27;;;13.23;;
11034;SDS011;5571;48.110;-1.706;2023-04-21T05:54:40;18.07;;;12.80;;
11034;SDS011;5571;48.110;-1.706;2023-04-21T05:57:06;15.17;;;12.53;;
11034;SDS011;5571;48.110;-1.706;2023-04-21T05:59:32;18.43;;;12.97;;
11034;SDS011;5571;48.110;-1.706;2023-04-21T06:01:58;18.57;;;13.33;;
11034;SDS011;5571;48.110;-1.706;2023-04-21T06:04:23;18.57;;;13.07;;
11034;SDS011;5571;48.110;-1.706;2023-04-21T06:06:49;18.13;;;13.90;;
11034;SDS011;5571;48.110;-1.706;2023-04-21T06:09:15;19.40;;;13.23;;
11034;SDS011;5571;48.110;-1.706;2023-04-21T06:11:40;18.93;;;13.63;;
11034;SDS011;5571;48.110;-1.706;2023-04-21T06:14:06;18.97;;;14.23;;
11034;SDS011;5571;48.110;-1.706;2023-04-21T06:16:31;20.63;;;14.13;;
11034;SDS011;5571;48.110;-1.706;2023-04-21T06:18:58;18.70;;;14.07;;
11034;SDS011;5571;48.110;-1.706;2023-04-21T06:21:24;22.63;;;14.07;;
11034;SDS011;5571;48.110;-1.706;2023-04-21T06:23:50;23.10;;;14.17;;
11034;SDS011;5571;48.110;-1.706;2023-04-21T06:26:16;25.33;;;14.80;;
11034;SDS011;5571;48.110;-1.706;2023-04-21T06:28:41;21.03;;;14.53;;
11034;SDS011;5571;48.110;-1.706;2023-04-21T06:31:07;27.30;;;13.73;;
11034;SDS011;5571;48.110;-1.706;2023-04-21T06:33:33;20.20;;;15.60;;
11034;SDS011;5571;48.110;-1.706;2023-04-21T06:35:59;19.23;;;14.70;;
11034;SDS011;5571;48.110;-1.706;2023-04-21T06:38:25;18.13;;;13.83;;
11034;SDS011;5571;48.110;-1.706;2023-04-21T06:40:50;19.07;;;14.67;;
11034;SDS011;5571;48.110;-1.706;2023-04-21T06:43:16;19.40;;;14.77;;
11034;SDS011;5571;48.110;-1.706;2023-04-21T06:45:42;23.30;;;15.23;;
11034;SDS011;5571;48.110;-1.706;2023-04-21T06:48:07;21.87;;;14.87;;
11034;SDS011;5571;48.110;-1.706;2023-04-21T06:50:33;19.80;;;14.13;;
11034;SDS011;5571;48.110;-1.706;2023-04-21T06:52:58;25.07;;;14.97;;
11034;SDS011;5571;48.110;-1.706;2023-04-21T06:55:24;15.47;;;13.87;;
11034;SDS011;5571;48.110;-1.706;2023-04-21T06:57:50;21.50;;;15.80;;
11034;SDS011;5571;48.110;-1.706;2023-04-21T07:00:15;19.27;;;15.40;;
11034;SDS011;5571;48.110;-1.706;2023-04-21T07:02:41;18.93;;;15.47;;
11034;SDS011;5571;48.110;-1.706;2023-04-21T07:05:07;20.17;;;15.63;;
11034;SDS011;5571;48.110;-1.706;2023-04-21T07:07:33;18.23;;;15.67;;
11034;SDS011;5571;48.110;-1.706;2023-04-21T07:09:58;18.40;;;16.50;;
11034;SDS011;5571;48.110;-1.706;2023-04-21T07:12:24;21.93;;;16.23;;
11034;SDS011;5571;48.110;-1.706;2023-04-21T07:14:50;21.90;;;16.30;;
11034;SDS011;5571;48.110;-1.706;2023-04-21T07:17:15;21.90;;;17.07;;
11034;SDS011;5571;48.110;-1.706;2023-04-21T07:19:41;19.97;;;15.77;;
11034;SDS011;5571;48.110;-1.706;2023-04-21T07:22:06;20.07;;;16.33;;
11034;SDS011;5571;48.110;-1.706;2023-04-21T07:24:32;18.67;;;15.67;;
11034;SDS011;5571;48.110;-1.706;2023-04-21T07:26:59;19.83;;;16.00;;
11034;SDS011;5571;48.110;-1.706;2023-04-21T07:29:26;18.50;;;16.50;;
11034;SDS011;5571;48.110;-1.706;2023-04-21T07:31:52;20.20;;;16.30;;
11034;SDS011;5571;48.110;-1.706;2023-04-21T07:34:18;20.17;;;16.10;;
11034;SDS011;5571;48.110;-1.706;2023-04-21T07:36:44;20.93;;;15.83;;
11034;SDS011;5571;48.110;-1.706;2023-04-21T07:39:09;18.77;;;16.77;;
11034;SDS011;5571;48.110;-1.706;2023-04-21T07:41:35;19.77;;;15.23;;
11034;SDS011;5571;48.110;-1.706;2023-04-21T07:44:01;23.10;;;17.73;;
11034;SDS011;5571;48.110;-1.706;2023-04-21T07:46:26;22.37;;;15.97;;
11034;SDS011;5571;48.110;-1.706;2023-04-21T07:48:55;20.20;;;16.20;;
11034;SDS011;5571;48.110;-1.706;2023-04-21T07:51:22;22.07;;;15.83;;
11034;SDS011;5571;48.110;-1.706;2023-04-21T07:53:48;17.97;;;15.63;;
11034;SDS011;5571;48.110;-1.706;2023-04-21T07:56:14;21.70;;;16.17;;
11034;SDS011;5571;48.110;-1.706;2023-04-21T07:58:40;17.63;;;14.77;;
11034;SDS011;5571;48.110;-1.706;2023-04-21T08:01:06;21.10;;;15.63;;
11034;SDS011;5571;48.110;-1.706;2023-04-21T08:03:32;20.70;;;16.43;;
11034;SDS011;5571;48.110;-1.706;2023-04-21T08:05:57;22.40;;;15.80;;
11034;SDS011;5571;48.110;-1.706;2023-04-21T08:08:23;18.33;;;16.33;;
11034;SDS011;5571;48.110;-1.706;2023-04-21T08:10:48;23.30;;;16.80;;
11034;SDS011;5571;48.110;-1.706;2023-04-21T08:13:14;21.13;;;16.47;;
11034;SDS011;5571;48.110;-1.706;2023-04-21T08:15:40;22.27;;;16.20;;
11034;SDS011;5571;48.110;-1.706;2023-04-21T08:18:06;19.17;;;15.97;;
11034;SDS011;5571;48.110;-1.706;2023-04-21T08:20:32;21.60;;;16.23;;
11034;SDS011;5571;48.110;-1.706;2023-04-21T08:22:58;21.43;;;15.93;;
11034;SDS011;5571;48.110;-1.706;2023-04-21T08:25:24;22.10;;;16.20;;
11034;SDS011;5571;48.110;-1.706;2023-04-21T08:27:49;19.33;;;15.57;;
11034;SDS011;5571;48.110;-1.706;2023-04-21T08:30:15;22.77;;;16.60;;
11034;SDS011;5571;48.110;-1.706;2023-04-21T08:32:41;19.67;;;16.10;;
11034;SDS011;5571;48.110;-1.706;2023-04-21T08:35:07;18.40;;;16.13;;
11034;SDS011;5571;48.110;-1.706;2023-04-21T08:37:34;18.50;;;15.20;;
11034;SDS011;5571;48.110;-1.706;2023-04-21T08:40:02;21.73;;;15.97;;
11034;SDS011;5571;48.110;-1.706;2023-04-21T08:42:29;18.77;;;15.63;;
11034;SDS011;5571;48.110;-1.706;2023-04-21T08:44:54;17.47;;;15.37;;
11034;SDS011;5571;48.110;-1.706;2023-04-21T08:47:20;18.80;;;15.43;;
11034;SDS011;5571;48.110;-1.706;2023-04-21T08:49:48;16.70;;;13.80;;
11034;SDS011;5571;48.110;-1.706;2023-04-21T08:52:15;17.50;;;14.60;;
11034;SDS011;5571;48.110;-1.706;2023-04-21T08:54:41;22.23;;;14.70;;
11034;SDS011;5571;48.110;-1.706;2023-04-21T08:57:07;19.67;;;14.60;;
11034;SDS011;5571;48.110;-1.706;2023-04-21T08:59:33;15.67;;;13.93;;
11034;SDS011;5571;48.110;-1.706;2023-04-21T09:02:05;17.17;;;12.60;;
11034;SDS011;5571;48.110;-1.706;2023-04-21T09:04:31;14.53;;;12.63;;
11034;SDS011;5571;48.110;-1.706;2023-04-21T09:06:57;14.17;;;12.47;;
11034;SDS011;5571;48.110;-1.706;2023-04-21T09:09:22;15.47;;;12.73;;
11034;SDS011;5571;48.110;-1.706;2023-04-21T09:11:54;16.33;;;12.60;;
11034;SDS011;5571;48.110;-1.706;2023-04-21T09:14:32;17.30;;;12.47;;
11034;SDS011;5571;48.110;-1.706;2023-04-21T09:17:00;16.23;;;11.57;;
11034;SDS011;5571;48.110;-1.706;2023-04-21T09:19:29;15.13;;;11.90;;
11034;SDS011;5571;48.110;-1.706;2023-04-21T09:21:57;14.60;;;12.80;;
11034;SDS011;5571;48.110;-1.706;2023-04-21T09:24:24;16.40;;;12.70;;
11034;SDS011;5571;48.110;-1.706;2023-04-21T09:26:50;18.47;;;12.23;;
11034;SDS011;5571;48.110;-1.706;2023-04-21T09:29:17;15.57;;;11.80;;
11034;SDS011;5571;48.110;-1.706;2023-04-21T09:31:46;17.00;;;11.80;;
11034;SDS011;5571;48.110;-1.706;2023-04-21T09:34:21;13.03;;;11.63;;
11034;SDS011;5571;48.110;-1.706;2023-04-21T09:36:57;17.40;;;11.90;;
11034;SDS011;5571;48.110;-1.706;2023-04-21T09:39:25;14.50;;;11.53;;
11034;SDS011;5571;48.110;-1.706;2023-04-21T09:41:51;15.13;;;12.30;;
11034;SDS011;5571;48.110;-1.706;2023-04-21T09:44:17;14.73;;;11.60;;
11034;SDS011;5571;48.110;-1.706;2023-04-21T09:46:42;13.03;;;11.63;;
11034;SDS011;5571;48.110;-1.706;2023-04-21T09:49:12;12.70;;;11.40;;
11034;SDS011;5571;48.110;-1.706;2023-04-21T09:51:41;14.17;;;11.37;;
11034;SDS011;5571;48.110;-1.706;2023-04-21T09:54:16;12.90;;;11.47;;
11034;SDS011;5571;48.110;-1.706;2023-04-21T09:56:43;10.90;;;9.30;;
11034;SDS011;5571;48.110;-1.706;2023-04-21T09:59:18;11.77;;;10.47;;
11034;SDS011;5571;48.110;-1.706;2023-04-21T10:01:49;11.83;;;10.57;;
11034;SDS011;5571;48.110;-1.706;2023-04-21T10:04:15;12.00;;;10.80;;
11034;SDS011;5571;48.110;-1.706;2023-04-21T10:06:43;13.07;;;10.47;;
11034;SDS011;5571;48.110;-1.706;2023-04-21T10:09:11;11.80;;;10.60;;
11034;SDS011;5571;48.110;-1.706;2023-04-21T10:11:40;11.90;;;10.33;;
11034;SDS011;5571;48.110;-1.706;2023-04-21T10:14:07;12.70;;;10.27;;
11034;SDS011;5571;48.110;-1.706;2023-04-21T10:16:34;11.30;;;9.83;;
11034;SDS011;5571;48.110;-1.706;2023-04-21T10:19:02;13.17;;;10.47;;
11034;SDS011;5571;48.110;-1.706;2023-04-21T10:21:48;10.90;;;9.80;;
11034;SDS011;5571;48.110;-1.706;2023-04-21T10:24:14;11.90;;;9.90;;
11034;SDS011;5571;48.110;-1.706;2023-04-21T10:26:40;10.93;;;9.80;;
11034;SDS011;5571;48.110;-1.706;2023-04-21T10:29:06;14.00;;;9.27;;
11034;SDS011;5571;48.110;-1.706;2023-04-21T10:31:39;13.53;;;10.13;;
11034;SDS011;5571;48.110;-1.706;2023-04-21T10:34:15;11.80;;;9.37;;
11034;SDS011;5571;48.110;-1.706;2023-04-21T10:39:29;11.30;;;9.93;;
11034;SDS011;5571;48.110;-1.706;2023-04-21T10:45:20;11.90;;;9.57;;
11034;SDS011;5571;48.110;-1.706;2023-04-21T10:47:39;10.50;;;9.40;;
11034;SDS011;5571;48.110;-1.706;2023-04-21T10:50:11;11.47;;;9.87;;
11034;SDS011;5571;48.110;-1.706;2023-04-21T10:52:38;10.83;;;9.73;;
11034;SDS011;5571;48.110;-1.706;2023-04-21T10:55:07;12.67;;;10.43;;
11034;SDS011;5571;48.110;-1.706;2023-04-21T10:57:36;13.33;;;11.27;;
11034;SDS011;5571;48.110;-1.706;2023-04-21T11:00:04;11.40;;;10.30;;
11034;SDS011;5571;48.110;-1.706;2023-04-21T11:02:31;14.10;;;9.70;;
11034;SDS011;5571;48.110;-1.706;2023-04-21T11:04:58;11.07;;;10.00;;
11034;SDS011;5571;48.110;-1.706;2023-04-21T11:07:25;11.43;;;9.93;;
11034;SDS011;5571;48.110;-1.706;2023-04-21T11:10:06;14.30;;;11.10;;
11034;SDS011;5571;48.110;-1.706;2023-04-21T11:12:35;11.10;;;10.00;;
11034;SDS011;5571;48.110;-1.706;2023-04-21T11:15:03;11.13;;;10.03;;
11034;SDS011;5571;48.110;-1.706;2023-04-21T11:17:31;12.70;;;11.27;;
11034;SDS011;5571;48.110;-1.706;2023-04-21T11:19:57;11.07;;;9.97;;
11034;SDS011;5571;48.110;-1.706;2023-04-21T11:22:23;11.87;;;9.90;;
11034;SDS011;5571;48.110;-1.706;2023-04-21T11:24:53;11.83;;;10.07;;
11034;SDS011;5571;48.110;-1.706;2023-04-21T11:27:19;15.10;;;10.77;;
11034;SDS011;5571;48.110;-1.706;2023-04-21T11:29:46;10.90;;;9.80;;
11034;SDS011;5571;48.110;-1.706;2023-04-21T11:32:12;12.10;;;10.87;;
11034;SDS011;5571;48.110;-1.706;2023-04-21T11:34:39;11.40;;;10.27;;
11034;SDS011;5571;48.110;-1.706;2023-04-21T11:37:06;11.37;;;10.27;;
11034;SDS011;5571;48.110;-1.706;2023-04-21T11:39:41;11.57;;;10.47;;
11034;SDS011;5571;48.110;-1.706;2023-04-21T11:42:08;13.10;;;11.13;;
11034;SDS011;5571;48.110;-1.706;2023-04-21T11:44:41;12.53;;;11.33;;
11034;SDS011;5571;48.110;-1.706;2023-04-21T11:47:11;12.10;;;10.90;;
11034;SDS011;5571;48.110;-1.706;2023-04-21T11:49:42;11.50;;;10.17;;
11034;SDS011;5571;48.110;-1.706;2023-04-21T11:52:25;11.97;;;10.37;;
11034;SDS011;5571;48.110;-1.706;2023-04-21T11:55:01;11.57;;;10.37;;
11034;SDS011;5571;48.110;-1.706;2023-04-21T11:57:35;11.40;;;10.30;;
11034;SDS011;5571;48.110;-1.706;2023-04-21T12:00:01;12.63;;;10.30;;
11034;SDS011;5571;48.110;-1.706;2023-04-21T12:02:32;12.07;;;10.03;;
11034;SDS011;5571;48.110;-1.706;2023-04-21T12:07:24;10.40;;;9.43;;
11034;SDS011;5571;48.110;-1.706;2023-04-21T12:09:50;11.67;;;10.50;;
11034;SDS011;5571;48.110;-1.706;2023-04-21T12:12:16;11.47;;;10.37;;
11034;SDS011;5571;48.110;-1.706;2023-04-21T12:14:42;12.33;;;11.03;;
11034;SDS011;5571;48.110;-1.706;2023-04-21T12:17:09;11.30;;;10.20;;
11034;SDS011;5571;48.110;-1.706;2023-04-21T12:19:38;12.27;;;11.00;;
11034;SDS011;5571;48.110;-1.706;2023-04-21T12:22:09;10.33;;;9.40;;
11034;SDS011;5571;48.110;-1.706;2023-04-21T12:24:40;10.50;;;9.27;;
11034;SDS011;5571;48.110;-1.706;2023-04-21T12:27:06;11.53;;;10.33;;
11034;SDS011;5571;48.110;-1.706;2023-04-21T12:29:32;10.77;;;9.73;;
11034;SDS011;5571;48.110;-1.706;2023-04-21T12:32:03;11.73;;;10.53;;
11034;SDS011;5571;48.110;-1.706;2023-04-21T12:34:32;11.20;;;10.00;;
11034;SDS011;5571;48.110;-1.706;2023-04-21T12:36:58;10.73;;;9.70;;
11034;SDS011;5571;48.110;-1.706;2023-04-21T12:39:24;10.50;;;9.50;;
11034;SDS011;5571;48.110;-1.706;2023-04-21T12:41:49;11.50;;;10.40;;
11034;SDS011;5571;48.110;-1.706;2023-04-21T12:44:15;11.40;;;10.30;;
11034;SDS011;5571;48.110;-1.706;2023-04-21T12:46:41;10.53;;;9.53;;
11034;SDS011;5571;48.110;-1.706;2023-04-21T12:49:08;11.23;;;10.00;;
11034;SDS011;5571;48.110;-1.706;2023-04-21T12:51:35;11.07;;;9.70;;
11034;SDS011;5571;48.110;-1.706;2023-04-21T12:54:01;11.43;;;10.30;;
11034;SDS011;5571;48.110;-1.706;2023-04-21T12:56:26;11.40;;;10.20;;
11034;SDS011;5571;48.110;-1.706;2023-04-21T12:58:52;12.27;;;10.33;;
11034;SDS011;5571;48.110;-1.706;2023-04-21T13:01:19;11.47;;;10.37;;
11034;SDS011;5571;48.110;-1.706;2023-04-21T13:03:45;11.37;;;10.20;;
11034;SDS011;5571;48.110;-1.706;2023-04-21T13:06:11;11.93;;;10.37;;
11034;SDS011;5571;48.110;-1.706;2023-04-21T13:08:36;12.77;;;11.13;;
11034;SDS011;5571;48.110;-1.706;2023-04-21T13:11:02;10.77;;;9.67;;
11034;SDS011;5571;48.110;-1.706;2023-04-21T13:13:28;11.57;;;10.47;;
11034;SDS011;5571;48.110;-1.706;2023-04-21T13:15:54;10.90;;;9.90;;
11034;SDS011;5571;48.110;-1.706;2023-04-21T13:18:20;10.47;;;9.20;;
11034;SDS011;5571;48.110;-1.706;2023-04-21T13:20:46;9.67;;;8.77;;
11034;SDS011;5571;48.110;-1.706;2023-04-21T13:23:11;11.27;;;9.30;;
11034;SDS011;5571;48.110;-1.706;2023-04-21T13:25:38;10.13;;;9.13;;
11034;SDS011;5571;48.110;-1.706;2023-04-21T13:28:04;10.60;;;9.50;;
11034;SDS011;5571;48.110;-1.706;2023-04-21T13:30:31;10.83;;;9.73;;
11034;SDS011;5571;48.110;-1.706;2023-04-21T13:32:57;11.37;;;10.27;;
11034;SDS011;5571;48.110;-1.706;2023-04-21T13:35:23;10.33;;;9.33;;
11034;SDS011;5571;48.110;-1.706;2023-04-21T13:37:49;10.97;;;9.93;;
11034;SDS011;5571;48.110;-1.706;2023-04-21T13:40:15;10.17;;;9.17;;
11034;SDS011;5571;48.110;-1.706;2023-04-21T13:42:40;9.77;;;8.87;;
11034;SDS011;5571;48.110;-1.706;2023-04-21T13:45:06;11.83;;;9.27;;
11034;SDS011;5571;48.110;-1.706;2023-04-21T13:47:32;12.00;;;10.77;;
11034;SDS011;5571;48.110;-1.706;2023-04-21T13:49:58;11.23;;;10.13;;
11034;SDS011;5571;48.110;-1.706;2023-04-21T13:52:24;10.67;;;9.67;;
11034;SDS011;5571;48.110;-1.706;2023-04-21T13:54:51;10.03;;;9.07;;
11034;SDS011;5571;48.110;-1.706;2023-04-21T13:57:17;10.33;;;9.33;;
11034;SDS011;5571;48.110;-1.706;2023-04-21T13:59:43;10.47;;;9.37;;
11034;SDS011;5571;48.110;-1.706;2023-04-21T14:02:09;10.00;;;9.10;;
11034;SDS011;5571;48.110;-1.706;2023-04-21T14:04:34;10.90;;;9.90;;
11034;SDS011;5571;48.110;-1.706;2023-04-21T14:07:01;10.40;;;9.30;;
11034;SDS011;5571;48.110;-1.706;2023-04-21T14:09:27;11.03;;;10.00;;
11034;SDS011;5571;48.110;-1.706;2023-04-21T14:11:52;10.13;;;9.17;;
11034;SDS011;5571;48.110;-1.706;2023-04-21T14:14:18;11.00;;;9.40;;
11034;SDS011;5571;48.110;-1.706;2023-04-21T14:16:45;11.83;;;9.40;;
11034;SDS011;5571;48.110;-1.706;2023-04-21T14:19:13;11.40;;;9.10;;
11034;SDS011;5571;48.110;-1.706;2023-04-21T14:21:39;11.00;;;9.90;;
11034;SDS011;5571;48.110;-1.706;2023-04-21T14:24:06;9.90;;;9.00;;
11034;SDS011;5571;48.110;-1.706;2023-04-21T14:26:31;10.23;;;9.23;;
11034;SDS011;5571;48.110;-1.706;2023-04-21T14:28:57;9.73;;;8.73;;
11034;SDS011;5571;48.110;-1.706;2023-04-21T14:31:25;10.00;;;9.00;;
11034;SDS011;5571;48.110;-1.706;2023-04-21T14:33:51;10.40;;;8.63;;